sensor_id;sensor_type;location;lat;lon;timestamp;P1;durP1;ratioP1;P2;durP2;ratioP2
23270;SDS011;11804;51.118;17.058;2022-07-22T00:00:07;9.35;;;6.42;;
23270;SDS011;11804;51.118;17.058;2022-07-22T00:02:40;8.03;;;6.30;;
23270;SDS011;11804;51.118;17.058;2022-07-22T00:05:08;10.20;;;6.25;;
23270;SDS011;11804;51.118;17.058;2022-07-22T00:07:38;9.55;;;5.75;;
23270;SDS011;11804;51.118;17.058;2022-07-22T00:10:07;7.90;;;6.22;;
23270;SDS011;11804;51.118;17.058;2022-07-22T00:12:36;8.48;;;5.83;;
23270;SDS011;11804;51.118;17.058;2022-07-22T00:15:05;8.40;;;6.55;;
23270;SDS011;11804;51.118;17.058;2022-07-22T00:17:36;8.03;;;6.00;;
23270;SDS011;11804;51.118;17.058;2022-07-22T00:20:05;8.13;;;5.67;;
23270;SDS011;11804;51.118;17.058;2022-07-22T00:22:34;7.17;;;5.87;;
23270;SDS011;11804;51.118;17.058;2022-07-22T00:25:02;6.62;;;5.80;;
23270;SDS011;11804;51.118;17.058;2022-07-22T00:27:30;10.30;;;6.20;;
23270;SDS011;11804;51.118;17.058;2022-07-22T00:29:57;6.83;;;5.95;;
23270;SDS011;11804;51.118;17.058;2022-07-22T00:32:25;10.50;;;6.22;;
23270;SDS011;11804;51.118;17.058;2022-07-22T00:34:53;7.50;;;6.15;;
23270;SDS011;11804;51.118;17.058;2022-07-22T00:37:20;10.40;;;6.25;;
23270;SDS011;11804;51.118;17.058;2022-07-22T00:39:48;7.35;;;6.47;;
23270;SDS011;11804;51.118;17.058;2022-07-22T00:42:15;11.05;;;6.28;;
23270;SDS011;11804;51.118;17.058;2022-07-22T00:44:43;7.28;;;6.08;;
23270;SDS011;11804;51.118;17.058;2022-07-22T00:47:11;7.80;;;6.03;;
23270;SDS011;11804;51.118;17.058;2022-07-22T00:49:39;7.05;;;6.22;;
23270;SDS011;11804;51.118;17.058;2022-07-22T00:52:07;9.15;;;6.22;;
23270;SDS011;11804;51.118;17.058;2022-07-22T00:54:36;7.40;;;5.97;;
23270;SDS011;11804;51.118;17.058;2022-07-22T00:57:04;10.63;;;6.50;;
23270;SDS011;11804;51.118;17.058;2022-07-22T00:59:32;6.95;;;6.00;;
23270;SDS011;11804;51.118;17.058;2022-07-22T01:02:00;10.10;;;6.28;;
23270;SDS011;11804;51.118;17.058;2022-07-22T01:04:28;9.43;;;6.12;;
23270;SDS011;11804;51.118;17.058;2022-07-22T01:06:55;7.75;;;6.17;;
23270;SDS011;11804;51.118;17.058;2022-07-22T01:09:23;9.55;;;6.00;;
23270;SDS011;11804;51.118;17.058;2022-07-22T01:11:50;7.03;;;6.35;;
23270;SDS011;11804;51.118;17.058;2022-07-22T01:14:18;8.95;;;6.45;;
23270;SDS011;11804;51.118;17.058;2022-07-22T01:16:46;10.15;;;6.70;;
23270;SDS011;11804;51.118;17.058;2022-07-22T01:19:13;9.73;;;6.50;;
23270;SDS011;11804;51.118;17.058;2022-07-22T01:21:41;6.97;;;6.28;;
23270;SDS011;11804;51.118;17.058;2022-07-22T01:24:08;8.98;;;6.62;;
23270;SDS011;11804;51.118;17.058;2022-07-22T01:26:36;7.85;;;6.33;;
23270;SDS011;11804;51.118;17.058;2022-07-22T01:29:04;7.53;;;6.47;;
23270;SDS011;11804;51.118;17.058;2022-07-22T01:31:33;8.33;;;6.05;;
23270;SDS011;11804;51.118;17.058;2022-07-22T01:34:01;8.68;;;6.15;;
23270;SDS011;11804;51.118;17.058;2022-07-22T01:36:29;10.45;;;6.72;;
23270;SDS011;11804;51.118;17.058;2022-07-22T01:38:56;11.38;;;6.55;;
23270;SDS011;11804;51.118;17.058;2022-07-22T01:41:24;11.03;;;6.92;;
23270;SDS011;11804;51.118;17.058;2022-07-22T01:43:51;9.10;;;6.83;;
23270;SDS011;11804;51.118;17.058;2022-07-22T01:46:19;6.97;;;6.10;;
23270;SDS011;11804;51.118;17.058;2022-07-22T01:48:49;11.28;;;7.40;;
23270;SDS011;11804;51.118;17.058;2022-07-22T01:51:17;7.95;;;6.62;;
23270;SDS011;11804;51.118;17.058;2022-07-22T01:53:46;8.30;;;7.22;;
23270;SDS011;11804;51.118;17.058;2022-07-22T01:56:13;8.10;;;6.58;;
23270;SDS011;11804;51.118;17.058;2022-07-22T01:58:41;7.75;;;6.55;;
23270;SDS011;11804;51.118;17.058;2022-07-22T02:01:09;11.97;;;7.08;;
23270;SDS011;11804;51.118;17.058;2022-07-22T02:03:36;10.03;;;6.92;;
23270;SDS011;11804;51.118;17.058;2022-07-22T02:06:04;9.25;;;6.87;;
23270;SDS011;11804;51.118;17.058;2022-07-22T02:08:32;9.30;;;6.53;;
23270;SDS011;11804;51.118;17.058;2022-07-22T02:11:01;7.60;;;6.78;;
23270;SDS011;11804;51.118;17.058;2022-07-22T02:13:29;9.60;;;7.00;;
23270;SDS011;11804;51.118;17.058;2022-07-22T02:15:56;8.53;;;7.03;;
23270;SDS011;11804;51.118;17.058;2022-07-22T02:18:24;7.78;;;7.00;;
23270;SDS011;11804;51.118;17.058;2022-07-22T02:20:51;9.43;;;7.33;;
23270;SDS011;11804;51.118;17.058;2022-07-22T02:23:19;12.70;;;7.40;;
23270;SDS011;11804;51.118;17.058;2022-07-22T02:25:46;10.78;;;7.42;;
23270;SDS011;11804;51.118;17.058;2022-07-22T02:28:14;10.25;;;7.58;;
23270;SDS011;11804;51.118;17.058;2022-07-22T02:30:41;8.48;;;7.20;;
23270;SDS011;11804;51.118;17.058;2022-07-22T02:33:09;13.80;;;7.33;;
23270;SDS011;11804;51.118;17.058;2022-07-22T02:35:37;9.03;;;7.42;;
23270;SDS011;11804;51.118;17.058;2022-07-22T02:38:05;10.68;;;7.67;;
23270;SDS011;11804;51.118;17.058;2022-07-22T02:40:33;9.13;;;7.50;;
23270;SDS011;11804;51.118;17.058;2022-07-22T02:43:00;8.83;;;7.83;;
23270;SDS011;11804;51.118;17.058;2022-07-22T02:45:30;11.00;;;7.42;;
23270;SDS011;11804;51.118;17.058;2022-07-22T02:47:57;11.18;;;7.90;;
23270;SDS011;11804;51.118;17.058;2022-07-22T02:50:25;11.00;;;8.00;;
23270;SDS011;11804;51.118;17.058;2022-07-22T02:52:53;8.88;;;8.08;;
23270;SDS011;11804;51.118;17.058;2022-07-22T02:55:21;9.45;;;8.18;;
23270;SDS011;11804;51.118;17.058;2022-07-22T02:57:48;10.78;;;7.75;;
23270;SDS011;11804;51.118;17.058;2022-07-22T03:00:16;8.98;;;7.72;;
23270;SDS011;11804;51.118;17.058;2022-07-22T03:02:44;10.85;;;8.48;;
23270;SDS011;11804;51.118;17.058;2022-07-22T03:05:11;9.93;;;8.20;;
23270;SDS011;11804;51.118;17.058;2022-07-22T03:07:39;11.68;;;8.45;;
23270;SDS011;11804;51.118;17.058;2022-07-22T03:10:07;11.12;;;8.45;;
23270;SDS011;11804;51.118;17.058;2022-07-22T03:12:34;10.85;;;8.15;;
23270;SDS011;11804;51.118;17.058;2022-07-22T03:15:03;15.98;;;9.00;;
23270;SDS011;11804;51.118;17.058;2022-07-22T03:17:34;18.35;;;9.78;;
23270;SDS011;11804;51.118;17.058;2022-07-22T03:20:03;12.25;;;9.98;;
23270;SDS011;11804;51.118;17.058;2022-07-22T03:22:32;17.48;;;9.78;;
23270;SDS011;11804;51.118;17.058;2022-07-22T03:24:59;18.73;;;11.18;;
23270;SDS011;11804;51.118;17.058;2022-07-22T03:27:27;16.93;;;10.20;;
23270;SDS011;11804;51.118;17.058;2022-07-22T03:29:55;14.07;;;10.15;;
23270;SDS011;11804;51.118;17.058;2022-07-22T03:32:23;15.00;;;9.98;;
23270;SDS011;11804;51.118;17.058;2022-07-22T03:34:50;16.07;;;10.68;;
23270;SDS011;11804;51.118;17.058;2022-07-22T03:37:18;16.02;;;11.53;;
23270;SDS011;11804;51.118;17.058;2022-07-22T03:39:45;19.25;;;11.20;;
23270;SDS011;11804;51.118;17.058;2022-07-22T03:42:13;13.93;;;11.83;;
23270;SDS011;11804;51.118;17.058;2022-07-22T03:44:40;16.02;;;11.15;;
23270;SDS011;11804;51.118;17.058;2022-07-22T03:47:08;12.10;;;10.88;;
23270;SDS011;11804;51.118;17.058;2022-07-22T03:49:36;17.57;;;11.25;;
23270;SDS011;11804;51.118;17.058;2022-07-22T03:52:03;15.85;;;11.03;;
23270;SDS011;11804;51.118;17.058;2022-07-22T03:54:31;13.95;;;10.70;;
23270;SDS011;11804;51.118;17.058;2022-07-22T03:56:58;14.20;;;10.48;;
23270;SDS011;11804;51.118;17.058;2022-07-22T03:59:26;12.13;;;10.82;;
23270;SDS011;11804;51.118;17.058;2022-07-22T04:01:53;16.02;;;11.57;;
23270;SDS011;11804;51.118;17.058;2022-07-22T04:04:21;14.80;;;11.38;;
23270;SDS011;11804;51.118;17.058;2022-07-22T04:06:49;16.82;;;11.88;;
23270;SDS011;11804;51.118;17.058;2022-07-22T04:09:17;17.27;;;12.10;;
23270;SDS011;11804;51.118;17.058;2022-07-22T04:11:46;18.95;;;11.80;;
23270;SDS011;11804;51.118;17.058;2022-07-22T04:14:16;16.05;;;12.63;;
23270;SDS011;11804;51.118;17.058;2022-07-22T04:16:44;16.52;;;12.30;;
23270;SDS011;11804;51.118;17.058;2022-07-22T04:19:11;16.75;;;11.88;;
23270;SDS011;11804;51.118;17.058;2022-07-22T04:21:39;16.82;;;12.03;;
23270;SDS011;11804;51.118;17.058;2022-07-22T04:24:07;14.85;;;12.13;;
23270;SDS011;11804;51.118;17.058;2022-07-22T04:26:35;18.70;;;12.60;;
23270;SDS011;11804;51.118;17.058;2022-07-22T04:29:03;17.57;;;12.93;;
23270;SDS011;11804;51.118;17.058;2022-07-22T04:31:33;19.23;;;12.23;;
23270;SDS011;11804;51.118;17.058;2022-07-22T04:34:00;19.60;;;12.73;;
23270;SDS011;11804;51.118;17.058;2022-07-22T04:36:28;18.20;;;12.55;;
23270;SDS011;11804;51.118;17.058;2022-07-22T04:38:56;17.17;;;12.40;;
23270;SDS011;11804;51.118;17.058;2022-07-22T04:41:24;16.27;;;13.55;;
23270;SDS011;11804;51.118;17.058;2022-07-22T04:43:51;15.95;;;12.68;;
23270;SDS011;11804;51.118;17.058;2022-07-22T04:46:19;18.32;;;12.45;;
23270;SDS011;11804;51.118;17.058;2022-07-22T04:48:46;14.47;;;11.78;;
23270;SDS011;11804;51.118;17.058;2022-07-22T04:51:14;15.08;;;11.75;;
23270;SDS011;11804;51.118;17.058;2022-07-22T04:53:42;18.20;;;12.28;;
23270;SDS011;11804;51.118;17.058;2022-07-22T04:56:09;18.32;;;12.98;;
23270;SDS011;11804;51.118;17.058;2022-07-22T04:58:37;15.88;;;12.28;;
23270;SDS011;11804;51.118;17.058;2022-07-22T05:01:04;14.65;;;12.10;;
23270;SDS011;11804;51.118;17.058;2022-07-22T05:03:32;19.50;;;12.23;;
23270;SDS011;11804;51.118;17.058;2022-07-22T05:06:00;16.45;;;11.85;;
23270;SDS011;11804;51.118;17.058;2022-07-22T05:08:28;13.60;;;10.93;;
23270;SDS011;11804;51.118;17.058;2022-07-22T05:10:55;14.30;;;11.30;;
23270;SDS011;11804;51.118;17.058;2022-07-22T05:13:23;15.23;;;11.22;;
23270;SDS011;11804;51.118;17.058;2022-07-22T05:15:50;14.33;;;12.37;;
23270;SDS011;11804;51.118;17.058;2022-07-22T05:18:18;19.55;;;13.20;;
23270;SDS011;11804;51.118;17.058;2022-07-22T05:20:46;20.15;;;11.95;;
23270;SDS011;11804;51.118;17.058;2022-07-22T05:23:13;13.30;;;11.15;;
23270;SDS011;11804;51.118;17.058;2022-07-22T05:25:41;15.90;;;11.15;;
23270;SDS011;11804;51.118;17.058;2022-07-22T05:28:08;15.35;;;10.43;;
23270;SDS011;11804;51.118;17.058;2022-07-22T05:30:36;14.73;;;10.53;;
23270;SDS011;11804;51.118;17.058;2022-07-22T05:33:04;14.45;;;10.23;;
23270;SDS011;11804;51.118;17.058;2022-07-22T05:35:31;17.95;;;10.65;;
23270;SDS011;11804;51.118;17.058;2022-07-22T05:37:59;17.12;;;10.32;;
23270;SDS011;11804;51.118;17.058;2022-07-22T05:40:26;11.88;;;10.08;;
23270;SDS011;11804;51.118;17.058;2022-07-22T05:42:54;10.95;;;9.23;;
23270;SDS011;11804;51.118;17.058;2022-07-22T05:45:22;16.70;;;10.00;;
23270;SDS011;11804;51.118;17.058;2022-07-22T05:47:49;14.03;;;9.80;;
23270;SDS011;11804;51.118;17.058;2022-07-22T05:50:17;16.42;;;10.15;;
23270;SDS011;11804;51.118;17.058;2022-07-22T05:52:44;14.75;;;9.60;;
23270;SDS011;11804;51.118;17.058;2022-07-22T05:55:12;14.75;;;12.70;;
23270;SDS011;11804;51.118;17.058;2022-07-22T05:57:39;10.50;;;8.58;;
23270;SDS011;11804;51.118;17.058;2022-07-22T06:00:07;13.72;;;9.10;;
23270;SDS011;11804;51.118;17.058;2022-07-22T06:02:35;17.12;;;10.15;;
23270;SDS011;11804;51.118;17.058;2022-07-22T06:05:03;17.25;;;9.83;;
23270;SDS011;11804;51.118;17.058;2022-07-22T06:07:32;12.45;;;9.65;;
23270;SDS011;11804;51.118;17.058;2022-07-22T06:10:00;10.75;;;9.25;;
23270;SDS011;11804;51.118;17.058;2022-07-22T06:12:27;10.98;;;9.45;;
23270;SDS011;11804;51.118;17.058;2022-07-22T06:14:56;12.05;;;9.05;;
23270;SDS011;11804;51.118;17.058;2022-07-22T06:17:24;12.05;;;9.40;;
23270;SDS011;11804;51.118;17.058;2022-07-22T06:19:52;12.40;;;9.38;;
23270;SDS011;11804;51.118;17.058;2022-07-22T06:22:19;16.00;;;9.73;;
23270;SDS011;11804;51.118;17.058;2022-07-22T06:24:47;13.95;;;8.35;;
23270;SDS011;11804;51.118;17.058;2022-07-22T06:27:15;12.35;;;9.93;;
23270;SDS011;11804;51.118;17.058;2022-07-22T06:29:43;12.53;;;9.48;;
23270;SDS011;11804;51.118;17.058;2022-07-22T06:32:10;13.10;;;9.60;;
23270;SDS011;11804;51.118;17.058;2022-07-22T06:34:38;16.75;;;10.20;;
23270;SDS011;11804;51.118;17.058;2022-07-22T06:37:06;19.90;;;9.80;;
23270;SDS011;11804;51.118;17.058;2022-07-22T06:39:34;14.07;;;9.35;;
23270;SDS011;11804;51.118;17.058;2022-07-22T06:42:01;20.92;;;9.93;;
23270;SDS011;11804;51.118;17.058;2022-07-22T06:44:29;17.75;;;11.90;;
23270;SDS011;11804;51.118;17.058;2022-07-22T06:46:56;18.07;;;11.18;;
23270;SDS011;11804;51.118;17.058;2022-07-22T06:49:24;17.98;;;12.45;;
23270;SDS011;11804;51.118;17.058;2022-07-22T06:51:51;23.85;;;15.20;;
23270;SDS011;11804;51.118;17.058;2022-07-22T06:54:19;24.47;;;15.03;;
23270;SDS011;11804;51.118;17.058;2022-07-22T06:56:47;22.93;;;15.50;;
23270;SDS011;11804;51.118;17.058;2022-07-22T06:59:14;23.25;;;15.32;;
23270;SDS011;11804;51.118;17.058;2022-07-22T07:01:42;23.73;;;15.50;;
23270;SDS011;11804;51.118;17.058;2022-07-22T07:04:09;22.82;;;13.88;;
23270;SDS011;11804;51.118;17.058;2022-07-22T07:06:37;20.95;;;12.82;;
23270;SDS011;11804;51.118;17.058;2022-07-22T07:09:04;22.02;;;12.55;;
23270;SDS011;11804;51.118;17.058;2022-07-22T07:11:32;14.60;;;11.43;;
23270;SDS011;11804;51.118;17.058;2022-07-22T07:14:00;18.02;;;11.55;;
23270;SDS011;11804;51.118;17.058;2022-07-22T07:16:30;14.33;;;11.33;;
23270;SDS011;11804;51.118;17.058;2022-07-22T07:18:57;18.90;;;11.15;;
23270;SDS011;11804;51.118;17.058;2022-07-22T07:21:25;15.98;;;10.08;;
23270;SDS011;11804;51.118;17.058;2022-07-22T07:23:53;11.25;;;9.13;;
23270;SDS011;11804;51.118;17.058;2022-07-22T07:26:21;10.65;;;9.33;;
23270;SDS011;11804;51.118;17.058;2022-07-22T07:28:49;9.38;;;8.23;;
23270;SDS011;11804;51.118;17.058;2022-07-22T07:31:17;13.95;;;9.55;;
23270;SDS011;11804;51.118;17.058;2022-07-22T07:33:45;12.58;;;10.30;;
23270;SDS011;11804;51.118;17.058;2022-07-22T07:36:12;14.43;;;9.35;;
23270;SDS011;11804;51.118;17.058;2022-07-22T07:38:40;11.45;;;9.25;;
23270;SDS011;11804;51.118;17.058;2022-07-22T07:41:08;11.40;;;9.95;;
23270;SDS011;11804;51.118;17.058;2022-07-22T07:43:38;11.95;;;9.73;;
23270;SDS011;11804;51.118;17.058;2022-07-22T07:46:07;11.48;;;9.90;;
23270;SDS011;11804;51.118;17.058;2022-07-22T07:48:35;10.53;;;9.45;;
23270;SDS011;11804;51.118;17.058;2022-07-22T07:51:03;11.38;;;10.03;;
23270;SDS011;11804;51.118;17.058;2022-07-22T07:53:31;11.57;;;9.43;;
23270;SDS011;11804;51.118;17.058;2022-07-22T07:55:58;9.93;;;8.93;;
23270;SDS011;11804;51.118;17.058;2022-07-22T07:58:26;11.73;;;10.08;;
23270;SDS011;11804;51.118;17.058;2022-07-22T08:00:54;12.15;;;9.50;;
23270;SDS011;11804;51.118;17.058;2022-07-22T08:03:22;11.33;;;9.73;;
23270;SDS011;11804;51.118;17.058;2022-07-22T08:05:50;15.10;;;9.23;;
23270;SDS011;11804;51.118;17.058;2022-07-22T08:08:17;9.80;;;8.80;;
23270;SDS011;11804;51.118;17.058;2022-07-22T08:10:45;9.95;;;8.95;;
23270;SDS011;11804;51.118;17.058;2022-07-22T08:13:13;13.18;;;8.70;;
23270;SDS011;11804;51.118;17.058;2022-07-22T08:15:41;10.32;;;9.25;;
23270;SDS011;11804;51.118;17.058;2022-07-22T08:18:09;11.70;;;9.00;;
23270;SDS011;11804;51.118;17.058;2022-07-22T08:20:36;11.30;;;8.13;;
23270;SDS011;11804;51.118;17.058;2022-07-22T08:23:04;10.85;;;8.55;;
23270;SDS011;11804;51.118;17.058;2022-07-22T08:25:32;11.93;;;9.08;;
23270;SDS011;11804;51.118;17.058;2022-07-22T08:27:59;9.00;;;8.30;;
23270;SDS011;11804;51.118;17.058;2022-07-22T08:30:27;11.28;;;8.90;;
23270;SDS011;11804;51.118;17.058;2022-07-22T08:32:55;11.38;;;8.75;;
23270;SDS011;11804;51.118;17.058;2022-07-22T08:35:23;9.03;;;8.20;;
23270;SDS011;11804;51.118;17.058;2022-07-22T08:37:51;14.85;;;9.70;;
23270;SDS011;11804;51.118;17.058;2022-07-22T08:40:19;15.10;;;8.78;;
23270;SDS011;11804;51.118;17.058;2022-07-22T08:42:47;9.70;;;8.73;;
23270;SDS011;11804;51.118;17.058;2022-07-22T08:45:15;9.23;;;8.40;;
23270;SDS011;11804;51.118;17.058;2022-07-22T08:47:47;12.07;;;9.10;;
23270;SDS011;11804;51.118;17.058;2022-07-22T08:50:16;10.93;;;8.35;;
23270;SDS011;11804;51.118;17.058;2022-07-22T08:52:44;9.35;;;8.48;;
23270;SDS011;11804;51.118;17.058;2022-07-22T08:55:12;9.90;;;8.98;;
23270;SDS011;11804;51.118;17.058;2022-07-22T08:57:43;9.15;;;8.35;;
23270;SDS011;11804;51.118;17.058;2022-07-22T09:00:13;12.30;;;9.48;;
23270;SDS011;11804;51.118;17.058;2022-07-22T09:02:43;13.13;;;8.78;;
23270;SDS011;11804;51.118;17.058;2022-07-22T09:05:11;10.68;;;9.55;;
23270;SDS011;11804;51.118;17.058;2022-07-22T09:07:41;14.03;;;9.15;;
23270;SDS011;11804;51.118;17.058;2022-07-22T09:10:11;12.63;;;9.13;;
23270;SDS011;11804;51.118;17.058;2022-07-22T09:12:56;13.83;;;9.28;;
23270;SDS011;11804;51.118;17.058;2022-07-22T09:15:32;11.40;;;8.03;;
23270;SDS011;11804;51.118;17.058;2022-07-22T09:18:06;10.10;;;8.13;;
23270;SDS011;11804;51.118;17.058;2022-07-22T09:20:35;12.33;;;8.63;;
23270;SDS011;11804;51.118;17.058;2022-07-22T09:23:13;12.43;;;9.38;;
23270;SDS011;11804;51.118;17.058;2022-07-22T09:25:47;13.80;;;9.60;;
23270;SDS011;11804;51.118;17.058;2022-07-22T09:28:20;9.63;;;8.43;;
23270;SDS011;11804;51.118;17.058;2022-07-22T09:30:51;10.93;;;8.30;;
23270;SDS011;11804;51.118;17.058;2022-07-22T09:33:20;13.28;;;8.40;;
23270;SDS011;11804;51.118;17.058;2022-07-22T09:35:49;11.85;;;8.55;;
23270;SDS011;11804;51.118;17.058;2022-07-22T09:38:19;10.65;;;7.15;;
23270;SDS011;11804;51.118;17.058;2022-07-22T09:40:48;9.40;;;7.60;;
23270;SDS011;11804;51.118;17.058;2022-07-22T09:43:17;9.18;;;7.60;;
23270;SDS011;11804;51.118;17.058;2022-07-22T09:45:53;8.18;;;6.90;;
23270;SDS011;11804;51.118;17.058;2022-07-22T09:48:25;7.45;;;6.67;;
23270;SDS011;11804;51.118;17.058;2022-07-22T09:50:54;8.30;;;6.60;;
23270;SDS011;11804;51.118;17.058;2022-07-22T09:53:24;7.80;;;6.42;;
23270;SDS011;11804;51.118;17.058;2022-07-22T09:55:55;7.22;;;5.50;;
23270;SDS011;11804;51.118;17.058;2022-07-22T09:58:24;8.25;;;6.40;;
23270;SDS011;11804;51.118;17.058;2022-07-22T10:00:54;7.22;;;6.28;;
23270;SDS011;11804;51.118;17.058;2022-07-22T10:03:30;8.25;;;6.53;;
23270;SDS011;11804;51.118;17.058;2022-07-22T10:05:59;7.90;;;6.30;;
23270;SDS011;11804;51.118;17.058;2022-07-22T10:08:30;8.00;;;7.12;;
23270;SDS011;11804;51.118;17.058;2022-07-22T10:11:00;8.55;;;6.53;;
23270;SDS011;11804;51.118;17.058;2022-07-22T10:13:29;7.67;;;6.85;;
23270;SDS011;11804;51.118;17.058;2022-07-22T10:15:59;8.00;;;6.30;;
23270;SDS011;11804;51.118;17.058;2022-07-22T10:18:28;9.28;;;5.95;;
23270;SDS011;11804;51.118;17.058;2022-07-22T10:21:09;6.50;;;5.90;;
23270;SDS011;11804;51.118;17.058;2022-07-22T10:23:34;6.92;;;6.20;;
23270;SDS011;11804;51.118;17.058;2022-07-22T10:26:03;8.30;;;6.20;;
23270;SDS011;11804;51.118;17.058;2022-07-22T10:28:32;7.17;;;5.97;;
23270;SDS011;11804;51.118;17.058;2022-07-22T10:33:50;10.18;;;6.92;;
23270;SDS011;11804;51.118;17.058;2022-07-22T10:36:31;12.28;;;7.15;;
23270;SDS011;11804;51.118;17.058;2022-07-22T10:39:03;8.65;;;6.40;;
23270;SDS011;11804;51.118;17.058;2022-07-22T10:41:35;7.90;;;7.08;;
23270;SDS011;11804;51.118;17.058;2022-07-22T10:44:05;7.60;;;6.90;;
23270;SDS011;11804;51.118;17.058;2022-07-22T10:46:52;9.33;;;7.30;;
23270;SDS011;11804;51.118;17.058;2022-07-22T10:49:23;9.70;;;7.72;;
23270;SDS011;11804;51.118;17.058;2022-07-22T10:52:08;11.93;;;8.25;;
23270;SDS011;11804;51.118;17.058;2022-07-22T10:55:15;11.53;;;8.33;;
23270;SDS011;11804;51.118;17.058;2022-07-22T10:57:29;11.05;;;7.22;;
23270;SDS011;11804;51.118;17.058;2022-07-22T10:59:58;8.38;;;7.58;;
23270;SDS011;11804;51.118;17.058;2022-07-22T11:02:25;8.48;;;7.22;;
23270;SDS011;11804;51.118;17.058;2022-07-22T11:04:54;10.08;;;7.50;;
23270;SDS011;11804;51.118;17.058;2022-07-22T11:07:23;7.85;;;7.08;;
23270;SDS011;11804;51.118;17.058;2022-07-22T11:09:52;8.00;;;6.83;;
23270;SDS011;11804;51.118;17.058;2022-07-22T11:12:19;10.28;;;7.15;;
23270;SDS011;11804;51.118;17.058;2022-07-22T11:14:47;7.17;;;6.37;;
23270;SDS011;11804;51.118;17.058;2022-07-22T11:17:15;10.20;;;6.70;;
23270;SDS011;11804;51.118;17.058;2022-07-22T11:19:42;9.20;;;6.40;;
23270;SDS011;11804;51.118;17.058;2022-07-22T11:22:11;10.00;;;7.62;;
23270;SDS011;11804;51.118;17.058;2022-07-22T11:24:41;8.13;;;6.42;;
23270;SDS011;11804;51.118;17.058;2022-07-22T11:27:13;10.98;;;6.62;;
23270;SDS011;11804;51.118;17.058;2022-07-22T11:29:42;6.90;;;6.20;;
23270;SDS011;11804;51.118;17.058;2022-07-22T11:32:13;7.12;;;5.80;;
23270;SDS011;11804;51.118;17.058;2022-07-22T11:34:42;8.53;;;5.83;;
23270;SDS011;11804;51.118;17.058;2022-07-22T11:37:12;8.00;;;5.65;;
23270;SDS011;11804;51.118;17.058;2022-07-22T11:39:41;8.73;;;5.20;;
23270;SDS011;11804;51.118;17.058;2022-07-22T11:42:09;9.18;;;6.22;;
23270;SDS011;11804;51.118;17.058;2022-07-22T11:44:38;7.17;;;6.42;;
23270;SDS011;11804;51.118;17.058;2022-07-22T11:47:07;7.17;;;5.50;;
23270;SDS011;11804;51.118;17.058;2022-07-22T11:49:36;9.30;;;6.05;;
23270;SDS011;11804;51.118;17.058;2022-07-22T11:52:09;6.05;;;4.80;;
23270;SDS011;11804;51.118;17.058;2022-07-22T11:54:40;6.35;;;5.40;;
23270;SDS011;11804;51.118;17.058;2022-07-22T11:57:09;10.38;;;5.45;;
23270;SDS011;11804;51.118;17.058;2022-07-22T11:59:37;12.33;;;6.97;;
23270;SDS011;11804;51.118;17.058;2022-07-22T12:02:05;11.73;;;6.50;;
23270;SDS011;11804;51.118;17.058;2022-07-22T12:04:35;7.58;;;5.40;;
23270;SDS011;11804;51.118;17.058;2022-07-22T12:07:04;7.97;;;5.60;;
23270;SDS011;11804;51.118;17.058;2022-07-22T12:09:33;6.37;;;5.78;;
23270;SDS011;11804;51.118;17.058;2022-07-22T12:12:03;7.97;;;5.60;;
23270;SDS011;11804;51.118;17.058;2022-07-22T12:14:32;8.45;;;5.25;;
23270;SDS011;11804;51.118;17.058;2022-07-22T12:17:04;5.97;;;5.45;;
23270;SDS011;11804;51.118;17.058;2022-07-22T12:19:33;7.30;;;5.55;;
23270;SDS011;11804;51.118;17.058;2022-07-22T12:22:10;8.55;;;5.30;;
23270;SDS011;11804;51.118;17.058;2022-07-22T12:25:02;8.40;;;5.67;;
23270;SDS011;11804;51.118;17.058;2022-07-22T12:27:28;6.90;;;5.30;;
23270;SDS011;11804;51.118;17.058;2022-07-22T12:29:56;12.03;;;5.60;;
23270;SDS011;11804;51.118;17.058;2022-07-22T12:32:29;6.70;;;5.28;;
23270;SDS011;11804;51.118;17.058;2022-07-22T12:34:55;5.55;;;4.53;;
23270;SDS011;11804;51.118;17.058;2022-07-22T12:37:27;8.98;;;5.15;;
23270;SDS011;11804;51.118;17.058;2022-07-22T12:40:05;7.95;;;4.83;;
23270;SDS011;11804;51.118;17.058;2022-07-22T12:42:41;8.48;;;5.17;;
23270;SDS011;11804;51.118;17.058;2022-07-22T12:45:14;5.50;;;4.97;;
23270;SDS011;11804;51.118;17.058;2022-07-22T12:50:41;6.50;;;4.85;;
23270;SDS011;11804;51.118;17.058;2022-07-22T12:55:43;5.92;;;5.30;;
23270;SDS011;11804;51.118;17.058;2022-07-22T12:58:15;6.45;;;5.30;;
23270;SDS011;11804;51.118;17.058;2022-07-22T13:00:44;7.97;;;4.87;;
23270;SDS011;11804;51.118;17.058;2022-07-22T13:03:13;9.30;;;5.50;;
23270;SDS011;11804;51.118;17.058;2022-07-22T13:05:43;7.80;;;5.10;;
23270;SDS011;11804;51.118;17.058;2022-07-22T13:08:11;7.22;;;5.08;;
23270;SDS011;11804;51.118;17.058;2022-07-22T13:10:38;5.28;;;4.80;;
23270;SDS011;11804;51.118;17.058;2022-07-22T13:13:06;7.28;;;5.20;;
23270;SDS011;11804;51.118;17.058;2022-07-22T13:15:34;7.80;;;4.95;;
23270;SDS011;11804;51.118;17.058;2022-07-22T13:18:03;9.60;;;5.20;;
23270;SDS011;11804;51.118;17.058;2022-07-22T13:20:31;5.65;;;5.10;;
23270;SDS011;11804;51.118;17.058;2022-07-22T13:22:59;5.80;;;5.20;;
23270;SDS011;11804;51.118;17.058;2022-07-22T13:25:27;6.22;;;5.20;;
23270;SDS011;11804;51.118;17.058;2022-07-22T13:27:56;6.20;;;5.20;;
23270;SDS011;11804;51.118;17.058;2022-07-22T13:30:24;6.37;;;5.20;;
23270;SDS011;11804;51.118;17.058;2022-07-22T13:32:52;6.03;;;5.00;;
23270;SDS011;11804;51.118;17.058;2022-07-22T13:35:19;5.12;;;4.60;;
23270;SDS011;11804;51.118;17.058;2022-07-22T13:37:47;7.00;;;4.90;;
23270;SDS011;11804;51.118;17.058;2022-07-22T13:40:15;11.57;;;5.17;;
23270;SDS011;11804;51.118;17.058;2022-07-22T13:42:42;6.10;;;5.50;;
23270;SDS011;11804;51.118;17.058;2022-07-22T13:45:10;11.60;;;6.35;;
23270;SDS011;11804;51.118;17.058;2022-07-22T13:47:41;8.33;;;5.55;;
23270;SDS011;11804;51.118;17.058;2022-07-22T13:50:08;6.53;;;5.15;;
23270;SDS011;11804;51.118;17.058;2022-07-22T13:52:36;11.03;;;5.55;;
23270;SDS011;11804;51.118;17.058;2022-07-22T13:55:04;8.65;;;4.95;;
23270;SDS011;11804;51.118;17.058;2022-07-22T13:57:33;7.45;;;5.47;;
23270;SDS011;11804;51.118;17.058;2022-07-22T14:00:02;7.90;;;4.72;;
23270;SDS011;11804;51.118;17.058;2022-07-22T14:02:32;7.00;;;5.33;;
23270;SDS011;11804;51.118;17.058;2022-07-22T14:05:00;7.87;;;5.47;;
23270;SDS011;11804;51.118;17.058;2022-07-22T14:07:30;7.85;;;5.10;;
23270;SDS011;11804;51.118;17.058;2022-07-22T14:09:58;6.08;;;5.50;;
23270;SDS011;11804;51.118;17.058;2022-07-22T14:12:25;5.75;;;5.30;;
23270;SDS011;11804;51.118;17.058;2022-07-22T14:14:53;8.93;;;5.62;;
23270;SDS011;11804;51.118;17.058;2022-07-22T14:17:23;11.25;;;5.33;;
23270;SDS011;11804;51.118;17.058;2022-07-22T14:19:50;7.15;;;5.00;;
23270;SDS011;11804;51.118;17.058;2022-07-22T14:22:21;7.28;;;5.05;;
23270;SDS011;11804;51.118;17.058;2022-07-22T14:24:49;8.25;;;5.20;;
23270;SDS011;11804;51.118;17.058;2022-07-22T14:27:16;8.28;;;5.30;;
23270;SDS011;11804;51.118;17.058;2022-07-22T14:29:44;6.72;;;5.08;;
23270;SDS011;11804;51.118;17.058;2022-07-22T14:32:12;9.58;;;5.87;;
23270;SDS011;11804;51.118;17.058;2022-07-22T14:34:39;7.87;;;5.80;;
23270;SDS011;11804;51.118;17.058;2022-07-22T14:37:07;6.92;;;5.12;;
23270;SDS011;11804;51.118;17.058;2022-07-22T14:39:36;6.37;;;5.37;;